Time;durP1;ratioP1;P1;durP2;ratioP2;P2;SDS_P1;SDS_P2;PMS_P1;PMS_P2;Temp;Humidity;BMP_temperature;BMP_pressure;BME280_temperature;BME280_humidity;BME280_pressure;Samples;Min_cycle;Max_cycle;Signal;HPM_P1;HPM_P2
2021/09/20 00:01:22;;;;;;;7.53;4.45;;;12.60;99.90;;;;;;4983657;28;20113;-67
2021/09/20 00:03:50;;;;;;;7.05;5.22;;;12.60;99.90;;;;;;4981714;28;20038;-67
2021/09/20 00:06:16;;;;;;;8.60;6.25;;;12.50;99.90;;;;;;4981764;28;20050;-67
2021/09/20 00:08:42;;;;;;;6.85;4.63;;;12.50;99.90;;;;;;4981826;28;20050;-67
2021/09/20 00:11:08;;;;;;;7.72;4.85;;;12.40;99.90;;;;;;4979252;28;20072;-67
2021/09/20 00:13:33;;;;;;;6.28;4.00;;;12.40;99.90;;;;;;4985882;28;20050;-67
2021/09/20 00:15:59;;;;;;;7.55;4.57;;;12.40;99.90;;;;;;4986440;28;20057;-67
2021/09/20 00:18:25;;;;;;;5.72;4.53;;;12.30;99.90;;;;;;4988679;28;20042;-67
2021/09/20 00:20:50;;;;;;;7.35;4.57;;;12.30;99.90;;;;;;4987067;28;20125;-67
2021/09/20 00:23:16;;;;;;;6.60;4.88;;;12.20;99.90;;;;;;4985553;28;20042;-67
2021/09/20 00:25:41;;;;;;;6.63;4.25;;;12.20;99.90;;;;;;4984987;28;20050;-67
2021/09/20 00:28:07;;;;;;;6.78;4.20;;;12.10;99.90;;;;;;4987696;28;20125;-67
2021/09/20 00:30:33;;;;;;;7.07;4.97;;;12.10;99.90;;;;;;4985363;28;20038;-67
2021/09/20 00:32:59;;;;;;;6.35;4.25;;;12.00;99.90;;;;;;4986014;28;20046;-67
2021/09/20 00:35:24;;;;;;;6.68;4.22;;;11.90;99.90;;;;;;4986305;28;20042;-67
2021/09/20 00:37:50;;;;;;;8.30;4.63;;;11.90;99.90;;;;;;4985078;28;20543;-67
2021/09/20 00:40:16;;;;;;;4.95;3.88;;;11.80;99.90;;;;;;4987065;28;20034;-67
2021/09/20 00:42:41;;;;;;;7.50;4.65;;;11.70;99.90;;;;;;4985855;28;20030;-67
2021/09/20 00:45:08;;;;;;;5.97;4.07;;;11.60;99.90;;;;;;4987499;28;20046;-67
2021/09/20 00:47:34;;;;;;;6.45;4.70;;;11.50;99.90;;;;;;4985379;28;20093;-67
2021/09/20 00:50:00;;;;;;;6.30;4.75;;;11.40;99.90;;;;;;5000999;28;20049;-67
2021/09/20 00:52:25;;;;;;;7.10;4.50;;;11.40;99.90;;;;;;4984640;28;20097;-67
2021/09/20 00:54:51;;;;;;;6.78;4.85;;;11.30;99.90;;;;;;4985316;28;20181;-67
2021/09/20 00:57:18;;;;;;;6.20;4.50;;;11.30;99.90;;;;;;4986875;28;20053;-67
2021/09/20 00:59:44;;;;;;;5.70;4.60;;;11.30;99.90;;;;;;4985189;28;20183;-67
2021/09/20 01:02:10;;;;;;;5.88;4.65;;;11.20;99.90;;;;;;4985048;28;20397;-67
2021/09/20 01:04:35;;;;;;;9.85;4.45;;;11.20;99.90;;;;;;4986948;28;20050;-67
2021/09/20 01:07:01;;;;;;;8.93;5.20;;;11.10;99.90;;;;;;4984895;28;20050;-67
2021/09/20 01:09:27;;;;;;;5.57;4.47;;;11.10;99.90;;;;;;4985519;28;20072;-67
2021/09/20 01:11:54;;;;;;;6.68;4.90;;;11.10;99.90;;;;;;4985831;28;20504;-67
2021/09/20 01:14:20;;;;;;;6.10;5.00;;;11.00;99.90;;;;;;4985079;28;20084;-67
2021/09/20 01:16:46;;;;;;;7.10;5.00;;;11.00;99.90;;;;;;4984438;28;20464;-67
2021/09/20 01:19:11;;;;;;;7.30;5.07;;;10.90;99.90;;;;;;4987749;28;20092;-67
2021/09/20 01:21:37;;;;;;;8.43;5.15;;;10.90;99.90;;;;;;4985339;28;20488;-67
2021/09/20 01:24:03;;;;;;;10.13;5.82;;;10.90;99.90;;;;;;4984381;28;20754;-67
2021/09/20 01:26:29;;;;;;;6.05;4.28;;;10.80;99.90;;;;;;4983972;28;20129;-67
2021/09/20 01:28:55;;;;;;;9.98;4.90;;;10.80;99.90;;;;;;4984752;28;20127;-67
2021/09/20 01:31:20;;;;;;;6.35;4.55;;;10.70;99.90;;;;;;4985739;28;20560;-67
2021/09/20 01:33:46;;;;;;;7.32;5.10;;;10.70;99.90;;;;;;4986349;28;20386;-67
2021/09/20 01:36:12;;;;;;;6.72;4.88;;;10.60;99.90;;;;;;4983678;28;20112;-67
2021/09/20 01:38:38;;;;;;;6.97;4.78;;;10.60;99.90;;;;;;4986537;28;20042;-67
2021/09/20 01:41:03;;;;;;;8.13;5.22;;;10.50;99.90;;;;;;4984665;28;20559;-67
2021/09/20 01:43:29;;;;;;;8.63;5.00;;;10.60;99.90;;;;;;4985142;28;20061;-67
2021/09/20 01:45:55;;;;;;;8.23;4.95;;;10.60;99.90;;;;;;4983906;28;20034;-67
2021/09/20 01:48:20;;;;;;;10.57;5.32;;;10.50;99.90;;;;;;4986599;28;20088;-67
2021/09/20 01:50:51;;;;;;;7.38;4.90;;;10.60;99.90;;;;;;4984592;28;20488;-67
2021/09/20 01:53:17;;;;;;;7.30;5.60;;;10.50;99.90;;;;;;4986276;28;20034;-67
2021/09/20 01:55:43;;;;;;;6.13;4.85;;;10.50;99.90;;;;;;4984719;28;20853;-67
2021/09/20 01:58:09;;;;;;;9.10;5.07;;;10.40;99.90;;;;;;4984179;28;20034;-67
2021/09/20 02:00:35;;;;;;;10.50;5.18;;;10.30;99.90;;;;;;4983538;28;20145;-67
2021/09/20 02:03:00;;;;;;;7.60;4.95;;;10.20;99.90;;;;;;4984460;28;20054;-67
2021/09/20 02:05:26;;;;;;;7.82;5.53;;;10.20;99.90;;;;;;4981679;28;20042;-67
2021/09/20 02:07:51;;;;;;;7.07;5.38;;;10.10;99.90;;;;;;4984227;28;20129;-67
2021/09/20 02:10:17;;;;;;;7.10;4.82;;;10.10;99.90;;;;;;4983863;28;20137;-67
2021/09/20 02:12:43;;;;;;;9.45;5.20;;;10.10;99.90;;;;;;4985810;28;20128;-67
2021/09/20 02:15:10;;;;;;;6.75;4.65;;;10.00;99.90;;;;;;4984933;28;20043;-67
2021/09/20 02:17:36;;;;;;;10.27;5.97;;;10.00;99.90;;;;;;4984486;28;20042;-67
2021/09/20 02:20:02;;;;;;;7.20;5.28;;;10.00;99.90;;;;;;4984076;28;20088;-67
2021/09/20 02:22:28;;;;;;;7.18;5.22;;;9.90;99.90;;;;;;4983837;28;20042;-67
2021/09/20 02:24:54;;;;;;;8.68;5.50;;;9.90;99.90;;;;;;4986286;28;20038;-67
2021/09/20 02:27:22;;;;;;;5.85;4.95;;;9.90;99.90;;;;;;4986693;28;20421;-67
2021/09/20 02:29:48;;;;;;;8.90;6.05;;;9.90;99.90;;;;;;4984255;28;20493;-67
2021/09/20 02:32:13;;;;;;;8.05;5.43;;;9.80;99.90;;;;;;4987140;28;20389;-67
2021/09/20 02:34:39;;;;;;;7.63;5.82;;;9.80;99.90;;;;;;4988401;28;20046;-67
2021/09/20 02:37:05;;;;;;;9.90;6.60;;;9.80;99.90;;;;;;4987814;28;20050;-67
2021/09/20 02:39:30;;;;;;;7.20;6.05;;;9.80;99.90;;;;;;4987536;28;20030;-67
2021/09/20 02:41:56;;;;;;;9.02;5.90;;;9.80;99.90;;;;;;4984950;28;20041;-67
2021/09/20 02:44:22;;;;;;;11.43;6.80;;;9.80;99.90;;;;;;4985079;28;20050;-67
2021/09/20 02:46:48;;;;;;;8.20;5.88;;;9.80;99.90;;;;;;4985973;28;20046;-67
2021/09/20 02:49:14;;;;;;;7.97;6.18;;;9.80;99.90;;;;;;4985467;28;20125;-67
2021/09/20 02:51:40;;;;;;;11.13;6.72;;;9.70;99.90;;;;;;4987286;28;20109;-67
2021/09/20 02:54:06;;;;;;;10.10;6.38;;;9.70;99.90;;;;;;4986062;28;20061;-67
2021/09/20 02:56:31;;;;;;;9.73;6.30;;;9.70;99.90;;;;;;4987229;28;20120;-66
2021/09/20 02:58:57;;;;;;;7.45;6.15;;;9.70;99.90;;;;;;4986728;28;20039;-67
2021/09/20 03:01:22;;;;;;;10.15;7.18;;;9.70;99.90;;;;;;4986349;28;20049;-66
2021/09/20 03:03:48;;;;;;;9.27;6.65;;;9.60;99.90;;;;;;4987252;28;20037;-66
2021/09/20 03:06:13;;;;;;;10.43;7.43;;;9.60;99.90;;;;;;4985367;28;20482;-66
2021/09/20 03:08:39;;;;;;;9.73;7.28;;;9.60;99.90;;;;;;4984522;28;20049;-66
2021/09/20 03:11:05;;;;;;;13.20;7.40;;;9.60;99.90;;;;;;4987509;28;20057;-66
2021/09/20 03:13:30;;;;;;;10.38;7.15;;;9.60;99.90;;;;;;4985127;28;20050;-66
2021/09/20 03:15:56;;;;;;;10.30;8.07;;;9.60;99.90;;;;;;4984590;28;20684;-67
2021/09/20 03:18:22;;;;;;;10.25;7.82;;;9.60;99.90;;;;;;4988728;28;20049;-67
2021/09/20 03:20:47;;;;;;;9.18;7.55;;;9.50;99.90;;;;;;4984074;28;20061;-67
2021/09/20 03:23:13;;;;;;;12.25;7.68;;;9.60;99.90;;;;;;4985074;28;20034;-67
2021/09/20 03:25:38;;;;;;;13.57;7.47;;;9.60;99.90;;;;;;4985615;28;20515;-67
2021/09/20 03:28:04;;;;;;;15.32;9.70;;;9.60;99.90;;;;;;4986633;28;20129;-67
2021/09/20 03:30:30;;;;;;;10.63;7.85;;;9.60;99.90;;;;;;4985163;28;20072;-67
2021/09/20 03:32:55;;;;;;;9.38;7.60;;;9.60;99.90;;;;;;4983923;28;20041;-67
2021/09/20 03:35:21;;;;;;;11.75;7.45;;;9.60;99.90;;;;;;4985778;28;20580;-67
2021/09/20 03:37:47;;;;;;;10.73;7.80;;;9.60;99.90;;;;;;4985735;28;20590;-67
2021/09/20 03:40:17;;;;;;;10.63;7.63;;;9.60;99.90;;;;;;4988837;28;20066;-67
2021/09/20 03:42:43;;;;;;;10.15;7.10;;;9.60;99.90;;;;;;4986098;28;20042;-67
2021/09/20 03:45:11;;;;;;;11.82;8.23;;;9.60;99.90;;;;;;4984737;28;20400;-67
2021/09/20 03:47:36;;;;;;;12.65;7.93;;;9.70;99.90;;;;;;4987260;28;20487;-67
2021/09/20 03:50:04;;;;;;;9.75;7.95;;;9.70;99.90;;;;;;4984739;28;20057;-67
2021/09/20 03:52:29;;;;;;;10.57;7.15;;;9.70;99.90;;;;;;4985293;28;20381;-67
2021/09/20 03:54:55;;;;;;;10.45;7.65;;;9.70;99.90;;;;;;4985125;28;20042;-67
2021/09/20 03:57:20;;;;;;;10.60;8.20;;;9.70;99.90;;;;;;4983290;28;20038;-67
2021/09/20 03:59:46;;;;;;;12.80;8.50;;;9.70;99.90;;;;;;4983250;28;20066;-67
2021/09/20 04:02:12;;;;;;;10.05;7.68;;;9.70;99.90;;;;;;4986878;28;20046;-67
2021/09/20 04:04:37;;;;;;;10.52;7.32;;;9.80;99.90;;;;;;4984246;28;20042;-67
2021/09/20 04:07:05;;;;;;;11.13;7.30;;;9.80;99.90;;;;;;4985651;28;20046;-67
2021/09/20 04:09:31;;;;;;;11.15;9.00;;;9.90;99.90;;;;;;4985848;28;20046;-67
2021/09/20 04:11:57;;;;;;;10.15;8.77;;;9.80;99.90;;;;;;4982252;28;20052;-67
2021/09/20 04:14:22;;;;;;;11.75;8.65;;;9.90;99.90;;;;;;4986537;28;20129;-67
2021/09/20 04:16:48;;;;;;;11.18;8.00;;;9.90;99.90;;;;;;4984341;28;20073;-67
2021/09/20 04:19:13;;;;;;;11.80;8.57;;;9.90;99.90;;;;;;4985205;28;20042;-66
2021/09/20 04:21:39;;;;;;;10.00;7.93;;;9.90;99.90;;;;;;4986396;28;20038;-66
2021/09/20 04:24:04;;;;;;;11.10;7.45;;;10.00;99.90;;;;;;4983152;28;20592;-67
2021/09/20 04:26:30;;;;;;;11.98;8.73;;;10.00;99.90;;;;;;4986940;28;20042;-67
2021/09/20 04:28:56;;;;;;;10.00;7.75;;;10.10;99.90;;;;;;4985780;28;20128;-67
2021/09/20 04:31:22;;;;;;;11.45;8.60;;;10.10;99.90;;;;;;4987072;28;20370;-67
2021/09/20 04:33:48;;;;;;;10.90;7.75;;;10.10;99.90;;;;;;4986921;28;20098;-67
2021/09/20 04:36:13;;;;;;;8.10;7.28;;;10.10;99.90;;;;;;4985787;28;20544;-67
2021/09/20 04:38:39;;;;;;;11.82;8.05;;;10.10;99.90;;;;;;4985369;28;20045;-67
2021/09/20 04:41:05;;;;;;;9.43;7.70;;;10.20;99.90;;;;;;4984256;28;20050;-67
2021/09/20 04:43:30;;;;;;;10.02;7.43;;;10.20;99.90;;;;;;4988105;28;20070;-67
2021/09/20 04:45:56;;;;;;;10.70;8.52;;;10.30;99.90;;;;;;4986584;28;20481;-67
2021/09/20 04:48:21;;;;;;;11.02;8.10;;;10.30;99.90;;;;;;4985880;28;20974;-67
2021/09/20 04:50:49;;;;;;;9.25;7.78;;;10.30;99.90;;;;;;4984077;28;20121;-67
2021/09/20 04:53:15;;;;;;;11.02;7.70;;;10.30;99.90;;;;;;4985344;28;20181;-67
2021/09/20 04:55:42;;;;;;;13.15;8.10;;;10.40;99.90;;;;;;4985457;28;20535;-67
2021/09/20 04:58:10;;;;;;;11.52;7.93;;;10.40;99.90;;;;;;4987008;28;20107;-67
2021/09/20 05:00:37;;;;;;;11.27;7.72;;;10.40;99.90;;;;;;4987027;28;20046;-67
2021/09/20 05:03:03;;;;;;;12.75;8.30;;;10.50;99.90;;;;;;4989570;28;20113;-67
2021/09/20 05:05:29;;;;;;;9.25;7.57;;;10.50;99.90;;;;;;4987974;28;20504;-67
2021/09/20 05:07:54;;;;;;;14.40;8.43;;;10.50;99.90;;;;;;4989181;28;20034;-67
2021/09/20 05:10:20;;;;;;;10.55;8.05;;;10.50;99.90;;;;;;4988892;28;20042;-67
2021/09/20 05:12:47;;;;;;;12.00;8.70;;;10.50;99.90;;;;;;4989222;28;20986;-67
2021/09/20 05:15:14;;;;;;;11.15;7.90;;;10.60;99.90;;;;;;4988106;28;20053;-67
2021/09/20 05:17:40;;;;;;;9.75;7.72;;;10.60;99.90;;;;;;4986944;28;20129;-67
2021/09/20 05:20:06;;;;;;;12.75;8.30;;;10.70;99.90;;;;;;4987947;28;20044;-67
2021/09/20 05:22:32;;;;;;;10.88;8.57;;;10.70;99.90;;;;;;4987479;28;20035;-67
2021/09/20 05:24:57;;;;;;;9.60;7.50;;;10.80;99.90;;;;;;4985269;28;20038;-67
2021/09/20 05:27:23;;;;;;;13.95;8.00;;;10.80;99.90;;;;;;4984430;28;20050;-67
2021/09/20 05:29:49;;;;;;;7.95;7.10;;;10.80;99.90;;;;;;4985865;28;20046;-67
2021/09/20 05:32:15;;;;;;;11.27;7.63;;;10.80;99.90;;;;;;4983431;28;20408;-67
2021/09/20 05:34:41;;;;;;;13.98;7.93;;;10.80;99.90;;;;;;4985605;28;20090;-67
2021/09/20 05:37:07;;;;;;;8.98;7.53;;;10.80;99.90;;;;;;4983588;28;20551;-67
2021/09/20 05:39:33;;;;;;;10.35;8.63;;;10.80;99.90;;;;;;4987159;28;20181;-67
2021/09/20 05:42:00;;;;;;;10.88;8.20;;;10.90;99.90;;;;;;4983943;28;20073;-67
2021/09/20 05:44:25;;;;;;;10.60;6.90;;;10.90;99.90;;;;;;4983452;28;20494;-67
2021/09/20 05:46:51;;;;;;;9.98;7.50;;;11.00;99.90;;;;;;4983941;28;20053;-67
2021/09/20 05:49:16;;;;;;;11.38;7.90;;;11.00;99.90;;;;;;4983313;28;20054;-67
2021/09/20 05:51:42;;;;;;;9.15;7.15;;;11.00;99.90;;;;;;4984348;28;20042;-67
2021/09/20 05:54:08;;;;;;;9.52;8.02;;;11.10;99.90;;;;;;4984494;28;20038;-67
2021/09/20 05:56:34;;;;;;;10.80;7.35;;;11.10;99.90;;;;;;4984225;28;20045;-67
2021/09/20 05:59:00;;;;;;;9.02;7.78;;;11.10;99.90;;;;;;4983051;28;20050;-67
2021/09/20 06:01:26;;;;;;;10.05;7.13;;;11.20;99.90;;;;;;4983254;28;20045;-67
2021/09/20 06:03:52;;;;;;;9.43;6.45;;;11.20;99.90;;;;;;4982919;28;20100;-67
2021/09/20 06:06:17;;;;;;;9.65;6.57;;;11.20;99.90;;;;;;4983124;28;20507;-67
2021/09/20 06:08:43;;;;;;;10.90;7.43;;;11.30;99.90;;;;;;4985593;28;20038;-67
2021/09/20 06:11:11;;;;;;;10.32;7.63;;;11.30;99.90;;;;;;4984215;28;20133;-67
2021/09/20 06:13:36;;;;;;;9.27;6.72;;;11.40;99.90;;;;;;4982803;28;20085;-67
2021/09/20 06:16:02;;;;;;;10.20;6.85;;;11.40;99.90;;;;;;4981497;28;20132;-67
2021/09/20 06:18:27;;;;;;;8.50;6.55;;;11.50;99.90;;;;;;4995698;28;20046;-67
2021/09/20 06:20:53;;;;;;;8.75;6.95;;;11.50;99.90;;;;;;4985236;28;20045;-67
2021/09/20 06:23:19;;;;;;;10.20;7.22;;;11.50;99.90;;;;;;4984365;28;20038;-67
2021/09/20 06:25:44;;;;;;;13.38;7.25;;;11.60;99.90;;;;;;4983532;28;20126;-66
2021/09/20 06:28:10;;;;;;;11.10;6.88;;;11.60;99.90;;;;;;4983023;28;20047;-66
2021/09/20 06:30:35;;;;;;;7.70;6.85;;;11.70;99.90;;;;;;4983951;28;20464;-66
2021/09/20 06:33:01;;;;;;;10.20;7.13;;;11.70;99.90;;;;;;4982614;28;20165;-66
2021/09/20 06:35:27;;;;;;;9.57;6.20;;;11.80;99.90;;;;;;4983595;28;20697;-66
2021/09/20 06:37:53;;;;;;;8.55;6.25;;;11.80;99.90;;;;;;4981851;28;20072;-66
2021/09/20 06:40:18;;;;;;;8.80;6.25;;;11.80;99.90;;;;;;4981905;28;20132;-67
2021/09/20 06:42:44;;;;;;;7.80;6.28;;;11.90;99.90;;;;;;4982780;28;20128;-66
2021/09/20 06:45:10;;;;;;;8.13;6.13;;;11.90;99.90;;;;;;4980596;28;20101;-66
2021/09/20 06:47:37;;;;;;;6.80;5.57;;;12.00;99.90;;;;;;4978991;28;20039;-66
2021/09/20 06:50:05;;;;;;;8.30;6.95;;;12.00;99.90;;;;;;4983906;28;20128;-66
2021/09/20 06:52:32;;;;;;;7.00;5.80;;;12.10;99.90;;;;;;4982621;28;20604;-66
2021/09/20 06:54:58;;;;;;;7.25;5.60;;;12.10;99.90;;;;;;4982844;28;20046;-66
2021/09/20 06:57:23;;;;;;;7.50;5.90;;;12.20;99.90;;;;;;4983635;28;20433;-66
2021/09/20 06:59:49;;;;;;;6.80;5.95;;;12.20;99.90;;;;;;4983032;28;20057;-66
2021/09/20 07:02:15;;;;;;;7.65;6.57;;;12.30;99.90;;;;;;4984662;28;20047;-66
2021/09/20 07:04:40;;;;;;;8.38;5.95;;;12.30;99.90;;;;;;4983375;28;20042;-66
2021/09/20 07:07:06;;;;;;;6.18;5.38;;;12.30;99.90;;;;;;4982796;28;20412;-66
2021/09/20 07:09:32;;;;;;;8.00;5.25;;;12.40;99.90;;;;;;4983369;28;20057;-66
2021/09/20 07:11:57;;;;;;;10.02;5.30;;;12.50;99.90;;;;;;4982966;28;20046;-66
2021/09/20 07:14:23;;;;;;;8.18;6.15;;;12.50;99.90;;;;;;4983115;28;20048;-66
2021/09/20 07:16:49;;;;;;;5.90;5.07;;;12.60;99.90;;;;;;4980096;28;20038;-66
2021/09/20 07:19:15;;;;;;;5.88;4.72;;;12.70;99.90;;;;;;4983815;28;20105;-66
2021/09/20 07:21:40;;;;;;;7.38;5.53;;;12.80;99.90;;;;;;4982250;28;20034;-66
2021/09/20 07:24:06;;;;;;;8.10;4.97;;;12.80;99.90;;;;;;4983412;28;20054;-66
2021/09/20 07:26:32;;;;;;;5.10;4.45;;;12.90;99.90;;;;;;4985263;28;20065;-66
2021/09/20 07:28:58;;;;;;;6.82;4.70;;;13.00;99.90;;;;;;4984423;28;20041;-66
2021/09/20 07:31:24;;;;;;;13.35;4.80;;;13.00;99.90;;;;;;4967070;28;20046;-66
2021/09/20 07:33:50;;;;;;;5.72;4.22;;;13.10;99.90;;;;;;4983575;28;20140;-66
2021/09/20 07:36:16;;;;;;;6.82;4.80;;;13.10;99.90;;;;;;4983155;28;20161;-66
2021/09/20 07:38:42;;;;;;;6.30;4.45;;;13.20;99.90;;;;;;4983885;28;21071;-66
2021/09/20 07:41:09;;;;;;;6.65;4.28;;;13.30;99.90;;;;;;4982650;28;20038;-66
2021/09/20 07:43:35;;;;;;;7.53;4.20;;;13.40;99.90;;;;;;4984691;28;20034;-66
2021/09/20 07:46:02;;;;;;;5.15;4.60;;;13.50;99.90;;;;;;4983261;28;20476;-66
2021/09/20 07:48:28;;;;;;;5.10;4.22;;;13.50;99.90;;;;;;4982740;28;20078;-66
2021/09/20 07:50:54;;;;;;;7.75;4.40;;;13.50;99.90;;;;;;4982669;28;20560;-66
2021/09/20 07:53:20;;;;;;;5.30;3.80;;;13.60;99.90;;;;;;4983597;28;20045;-66
2021/09/20 07:55:47;;;;;;;5.85;4.57;;;13.70;99.90;;;;;;4982546;28;20046;-66
2021/09/20 07:58:13;;;;;;;7.65;3.85;;;13.70;99.90;;;;;;4984087;28;20447;-66
2021/09/20 08:00:40;;;;;;;5.72;4.07;;;13.80;99.90;;;;;;4983115;28;20768;-66
2021/09/20 08:03:09;;;;;;;8.50;3.80;;;13.90;99.90;;;;;;4984887;28;20052;-66
2021/09/20 08:05:36;;;;;;;7.18;4.10;;;14.00;99.90;;;;;;4983259;28;20061;-66
2021/09/20 08:08:02;;;;;;;8.15;3.78;;;14.00;99.90;;;;;;4983590;28;20523;-67
2021/09/20 08:10:28;;;;;;;5.53;3.58;;;14.20;99.90;;;;;;4983666;28;20493;-67
2021/09/20 08:12:54;;;;;;;4.25;3.63;;;14.20;99.90;;;;;;4983319;28;20081;-66
2021/09/20 08:15:21;;;;;;;3.92;3.17;;;14.20;99.90;;;;;;4982102;28;20133;-66
2021/09/20 08:17:47;;;;;;;9.55;4.35;;;14.20;99.90;;;;;;4982269;28;20053;-66
2021/09/20 08:20:13;;;;;;;6.20;4.03;;;14.20;99.90;;;;;;4982084;28;20042;-66
2021/09/20 08:22:40;;;;;;;4.88;3.65;;;14.30;99.90;;;;;;4981699;28;21132;-66
2021/09/20 08:25:07;;;;;;;5.30;3.20;;;14.40;99.90;;;;;;4982894;28;20053;-66
2021/09/20 08:27:33;;;;;;;4.03;3.20;;;14.50;99.90;;;;;;4982711;28;20078;-66
2021/09/20 08:29:59;;;;;;;5.28;4.00;;;14.50;99.90;;;;;;4982289;28;20547;-66
2021/09/20 08:32:25;;;;;;;4.97;2.78;;;14.60;99.90;;;;;;4984709;28;20046;-66
2021/09/20 08:34:51;;;;;;;4.15;3.30;;;14.60;99.90;;;;;;4985931;28;20161;-66
2021/09/20 08:37:17;;;;;;;5.65;3.28;;;14.60;99.90;;;;;;4986986;28;20046;-66
2021/09/20 08:39:43;;;;;;;5.53;3.13;;;14.60;99.90;;;;;;4986430;28;20041;-66
2021/09/20 08:42:09;;;;;;;4.47;2.78;;;14.60;99.90;;;;;;4987720;28;20153;-66
2021/09/20 08:44:34;;;;;;;3.95;3.05;;;14.60;99.90;;;;;;4987588;28;20092;-66
2021/09/20 08:47:00;;;;;;;6.88;3.55;;;14.70;99.90;;;;;;4986937;28;20085;-66
2021/09/20 08:49:27;;;;;;;5.47;3.22;;;14.70;99.90;;;;;;4987671;28;20061;-66
2021/09/20 08:51:57;;;;;;;5.30;2.92;;;14.70;99.90;;;;;;4987665;28;20034;-67
2021/09/20 08:54:24;;;;;;;5.45;3.08;;;14.70;99.90;;;;;;4986509;28;20051;-66
2021/09/20 08:56:51;;;;;;;3.15;2.67;;;14.80;99.90;;;;;;4986659;28;20081;-67
2021/09/20 08:59:18;;;;;;;5.75;3.22;;;14.90;99.90;;;;;;4986944;28;20069;-66
2021/09/20 09:01:48;;;;;;;6.82;2.75;;;14.90;99.90;;;;;;4986814;28;20045;-67
2021/09/20 09:04:32;;;;;;;7.95;3.10;;;15.10;99.90;;;;;;4983719;28;20049;-67
2021/09/20 09:07:02;;;;;;;4.53;2.60;;;15.10;99.90;;;;;;4985774;28;20180;-67
2021/09/20 09:09:32;;;;;;;3.25;2.10;;;15.10;99.90;;;;;;4999472;28;20042;-67
2021/09/20 09:12:08;;;;;;;3.78;2.78;;;15.00;99.90;;;;;;4987448;28;20527;-67
2021/09/20 09:14:43;;;;;;;4.90;2.22;;;15.10;99.90;;;;;;4986980;28;20500;-67
2021/09/20 09:17:26;;;;;;;3.47;1.98;;;15.10;99.90;;;;;;4987525;28;20113;-67
2021/09/20 09:19:59;;;;;;;6.05;2.00;;;15.10;99.90;;;;;;4986807;28;20042;-67
2021/09/20 09:22:37;;;;;;;4.78;1.95;;;15.10;99.90;;;;;;4986652;28;20041;-67
2021/09/20 09:25:06;;;;;;;4.25;1.95;;;15.20;99.90;;;;;;4987117;28;20683;-67
2021/09/20 09:27:35;;;;;;;3.35;2.33;;;15.30;99.90;;;;;;4986129;28;20129;-67
2021/09/20 09:30:11;;;;;;;13.13;3.20;;;15.30;99.90;;;;;;4985746;28;20062;-66
2021/09/20 09:32:39;;;;;;;;;;;15.40;99.90;;;;;;4983969;28;20050;-66
2021/09/20 09:35:07;;;;;;;4.90;2.00;;;15.40;99.90;;;;;;4985175;28;20035;-66
2021/09/20 09:37:34;;;;;;;3.13;1.80;;;15.40;99.90;;;;;;4986000;28;20050;-66
2021/09/20 09:40:19;;;;;;;3.90;1.80;;;15.50;99.90;;;;;;4985832;28;20046;-67
2021/09/20 09:42:45;;;;;;;2.58;1.52;;;15.60;99.90;;;;;;4987274;28;20057;-67
2021/09/20 09:45:16;;;;;;;4.10;1.52;;;15.70;99.90;;;;;;4984005;28;20042;-67
2021/09/20 09:47:42;;;;;;;4.60;1.50;;;15.80;99.90;;;;;;4986753;28;20035;-67
2021/09/20 09:50:20;;;;;;;5.63;1.80;;;15.90;99.90;;;;;;4985513;28;20045;-67
2021/09/20 09:52:48;;;;;;;2.58;1.27;;;15.90;99.90;;;;;;4986272;28;20042;-67
2021/09/20 09:55:14;;;;;;;4.13;1.77;;;15.90;99.90;;;;;;4986245;28;20736;-67
2021/09/20 09:57:40;;;;;;;4.35;1.33;;;16.00;99.90;;;;;;4986608;28;20038;-67
2021/09/20 10:00:17;;;;;;;3.38;1.30;;;16.10;99.90;;;;;;4986404;28;20030;-67
2021/09/20 10:02:48;;;;;;;2.80;1.13;;;16.10;99.90;;;;;;4986381;28;20100;-66
2021/09/20 10:05:15;;;;;;;5.75;1.27;;;16.20;99.90;;;;;;4986389;28;20042;-66
2021/09/20 10:07:49;;;;;;;2.60;1.10;;;16.20;99.90;;;;;;4985649;28;20485;-66
2021/09/20 10:10:20;;;;;;;2.60;1.08;;;16.30;99.90;;;;;;4986751;28;20041;-67
2021/09/20 10:12:48;;;;;;;3.05;0.93;;;16.40;99.90;;;;;;4986863;28;20034;-67
2021/09/20 10:15:17;;;;;;;8.52;0.90;;;16.40;99.90;;;;;;4986173;28;20198;-67
2021/09/20 10:17:43;;;;;;;2.85;0.55;;;16.50;99.90;;;;;;4985257;28;21537;-67
2021/09/20 10:20:13;;;;;;;4.82;0.90;;;16.50;99.90;;;;;;4986289;28;20030;-67
2021/09/20 10:22:38;;;;;;;2.20;1.17;;;16.50;99.90;;;;;;4986291;28;20077;-67
2021/09/20 10:25:06;;;;;;;2.33;0.85;;;16.60;99.90;;;;;;4985248;28;20469;-67
2021/09/20 10:27:33;;;;;;;1.70;0.65;;;16.60;99.90;;;;;;4984520;28;20038;-67
2021/09/20 10:30:08;;;;;;;5.63;0.50;;;16.60;98.60;;;;;;4981855;28;20054;-67
2021/09/20 10:32:36;;;;;;;0.55;0.40;;;16.80;99.00;;;;;;4983374;28;20054;-67
2021/09/20 10:35:37;;;;;;;5.32;0.75;;;16.70;98.80;;;;;;4986446;28;20042;-67
2021/09/20 10:38:21;;;;;;;4.72;0.60;;;16.80;99.80;;;;;;4983120;28;20038;-67
2021/09/20 10:41:07;;;;;;;1.27;0.73;;;17.00;94.80;;;;;;4983785;28;20047;-67
2021/09/20 10:43:35;;;;;;;2.70;0.60;;;17.00;95.00;;;;;;4969382;28;20046;-68
2021/09/20 10:46:02;;;;;;;2.65;0.40;;;17.00;97.10;;;;;;4984461;28;20389;-68
2021/09/20 10:48:29;;;;;;;0.73;0.43;;;17.10;98.10;;;;;;4983733;28;20465;-68
2021/09/20 10:51:01;;;;;;;0.98;0.50;;;17.20;95.50;;;;;;4985242;28;20125;-68
2021/09/20 10:53:32;;;;;;;2.00;0.82;;;17.10;93.70;;;;;;4984295;28;20034;-68
2021/09/20 10:56:04;;;;;;;2.80;0.50;;;17.20;95.80;;;;;;4985430;28;20049;-68
2021/09/20 10:58:35;;;;;;;0.93;0.43;;;17.30;97.50;;;;;;4983821;28;20074;-68
2021/09/20 11:01:14;;;;;;;2.40;0.45;;;17.40;93.10;;;;;;4984146;28;20041;-68
2021/09/20 11:03:43;;;;;;;3.08;0.70;;;17.20;90.40;;;;;;4983768;28;20049;-68
2021/09/20 11:06:22;;;;;;;2.70;0.40;;;17.10;91.80;;;;;;4982320;28;20097;-68
2021/09/20 11:09:08;;;;;;;3.05;0.50;;;17.10;92.30;;;;;;4984470;28;20481;-68
2021/09/20 11:11:37;;;;;;;;;;;17.20;94.60;;;;;;4983487;28;20050;-68
2021/09/20 11:14:11;;;;;;;4.18;0.50;;;17.20;92.10;;;;;;4985417;28;19929;-67
2021/09/20 11:16:52;;;;;;;2.05;0.40;;;17.40;93.60;;;;;;4984572;28;20042;-67
2021/09/20 11:19:31;;;;;;;3.60;0.50;;;17.30;90.60;;;;;;4997415;28;20042;-67
2021/09/20 11:22:03;;;;;;;1.10;0.50;;;17.30;86.40;;;;;;4983868;28;20038;-67
2021/09/20 11:24:51;;;;;;;1.75;0.55;;;17.30;91.30;;;;;;4983740;28;20093;-67
2021/09/20 11:27:26;;;;;;;4.93;0.50;;;17.20;89.40;;;;;;4983719;28;20046;-67
2021/09/20 11:29:59;;;;;;;0.80;0.40;;;17.10;91.00;;;;;;4983365;28;20116;-67
2021/09/20 11:32:25;;;;;;;2.00;0.52;;;17.20;95.50;;;;;;4983554;28;20056;-67
2021/09/20 11:34:53;;;;;;;1.50;0.40;;;17.20;95.00;;;;;;4982877;28;20038;-67
2021/09/20 11:37:22;;;;;;;5.43;0.50;;;17.10;91.90;;;;;;4983964;28;20042;-67
2021/09/20 11:39:53;;;;;;;3.13;0.77;;;17.00;93.10;;;;;;4984903;28;20038;-67
2021/09/20 11:42:23;;;;;;;0.80;0.40;;;16.90;92.90;;;;;;4982693;28;20042;-67
2021/09/20 11:44:52;;;;;;;2.10;0.47;;;16.80;91.90;;;;;;4982251;28;20071;-67
2021/09/20 11:47:19;;;;;;;1.20;0.35;;;16.70;90.20;;;;;;4983823;28;20077;-67
2021/09/20 11:49:50;;;;;;;1.70;0.50;;;16.60;92.60;;;;;;4983064;28;20057;-67
2021/09/20 11:52:32;;;;;;;0.80;0.38;;;16.60;94.20;;;;;;4983627;28;20038;-67
2021/09/20 11:54:58;;;;;;;1.45;0.43;;;16.70;94.80;;;;;;4983933;28;20129;-67
2021/09/20 11:57:25;;;;;;;1.23;0.30;;;16.70;94.80;;;;;;4984194;28;20125;-67
2021/09/20 11:59:56;;;;;;;1.77;0.43;;;16.70;92.30;;;;;;4984164;28;20060;-67
2021/09/20 12:02:34;;;;;;;1.02;0.50;;;16.70;94.20;;;;;;4982477;28;20038;-67
2021/09/20 12:05:00;;;;;;;4.72;0.60;;;16.70;94.80;;;;;;4981301;28;20053;-67
2021/09/20 12:07:32;;;;;;;1.83;0.63;;;16.60;93.60;;;;;;4982952;28;20756;-67
2021/09/20 12:09:59;;;;;;;2.10;0.40;;;16.50;91.80;;;;;;4984328;28;20042;-67
2021/09/20 12:12:30;;;;;;;2.22;0.40;;;16.40;89.30;;;;;;4982332;28;20061;-67
2021/09/20 12:15:02;;;;;;;4.43;0.60;;;16.40;91.10;;;;;;4983324;28;20484;-67
2021/09/20 12:17:48;;;;;;;2.35;0.60;;;16.30;93.30;;;;;;4996156;28;20093;-67
2021/09/20 12:20:15;;;;;;;2.60;0.55;;;16.20;94.90;;;;;;4983564;28;20053;-67
2021/09/20 12:22:43;;;;;;;2.95;0.60;;;16.20;92.90;;;;;;4982828;28;20085;-67
2021/09/20 12:25:39;;;;;;;2.17;0.50;;;16.20;94.70;;;;;;4984865;28;20586;-67
2021/09/20 12:28:06;;;;;;;;;;;16.10;94.40;;;;;;4986640;28;20050;-67
2021/09/20 12:30:33;;;;;;;3.13;0.60;;;16.20;97.00;;;;;;4982810;28;20414;-67
2021/09/20 12:33:10;;;;;;;4.60;0.68;;;16.30;94.50;;;;;;4983933;28;20389;-67
2021/09/20 12:35:37;;;;;;;1.75;0.57;;;16.30;96.90;;;;;;4984297;28;20117;-67
2021/09/20 12:38:27;;;;;;;3.15;0.57;;;16.50;95.40;;;;;;4985105;28;20062;-67
2021/09/20 12:40:56;;;;;;;2.00;0.80;;;16.60;95.90;;;;;;4983708;28;20046;-67
2021/09/20 12:43:32;;;;;;;1.38;0.60;;;16.50;95.60;;;;;;4982961;28;20070;-67
2021/09/20 12:46:12;;;;;;;4.45;0.47;;;16.40;93.60;;;;;;4983252;28;20034;-67
2021/09/20 12:48:40;;;;;;;1.90;0.75;;;16.50;96.30;;;;;;4984032;28;20058;-67
2021/09/20 12:51:08;;;;;;;1.15;0.50;;;16.60;94.90;;;;;;4984048;28;20093;-67